首页
METAR-TAF:

METAR-TAF

机场 :

努瓦克肖特国际机场

努瓦克肖特, 毛里塔尼亚

纬度: 18-18-36N, 经度: 015-58-11W, 海拔: 3米

当前天气观测

该预报发布于47分钟前的19:30 UTC
风速13节,风向西北
温度 22°C
湿度 65%
气压 1011 hPa
能見度: 8000

METAR: GQNO 141930Z 32013KT 8000 NSC 22/15 Q1011 NOSIG

时间: 20:17 (20:17 UTC)

预报

该预报发布于3小时和17分钟前的17:00 UTC
预报有效从14日的 18点(UTC)到 15日的 24点(UTC)
风速14节,风向北转西北
能見度: 7000
成为
从 15日的 07点(UTC)到 15日的 10点(UTC)
风速12节,风向东北
成为
从 15日的 12点(UTC)到 15日的 15点(UTC)
风速14节,风向北转西北

TAF: GQNO 141700Z 1418/1524 34014KT 7000 NSC BECMG 1507/1510 04012KT BECMG 1512/1515 34014KT

超过4000个机场的气象观测和天气预报(METAR&TAF报告)。

可查询的气象台以黄色和红色小点在地图上表示。

将鼠标移到小点上方,可查看气象台名称。

然后点击查看天气观测和预报。

如需切换地图:点击带黑十字的绿色按钮放大地图;点击带横线的绿色按钮缩小地图;或者点击绿色箭头查看邻近地区的地图。


METAR-TAF: